Marlboro, Canada
Current Conditions -  °F | °C
As of 2:00 PM on Sunday 23 Nov 2014 (Local Time) from CYET Reporting Station
Overcast Overcast  
Wind Chill: 15°   Ceiling: 7500
Heat Index: 21°   Visibility: 9mi
Dew Point: 18°   Wind: 5mph
Humidity: 86%   Direction: 190°S
Pressure: 29.65"   Gusts: NA
Location:  53.55°N, 116.77°W
Report Text: CYET 232100Z AUTO 19004KT 120V210 9SM OVC075 M06/M08 A2965 RMK SLP093
Loading
Personal Weather Stations






























Interactive Weather Map New forecast layout! Learn more

10-Day Weather Forecast

Advertisements
Track Severe Weather on mobile